Portada
METAR-TAF:

METAR-TAF

Aeropuertos :

Aeropuerto Internacional de El Cairo

El Cairo, Egipto

latitud: 30-08N, longitud: 031-24E, altitud: 64 m

Observación

El informe se hizo hace 36 minutos, a las 10:00 UTC
Viento 7 kt del norte-noreste
Temperatura 36°C
Humedad 24%
Presión 1015 hPa
Visibilidad 10 km o más
sin nubes por debajo de 1500 m y sin presencia de cumulonimbus.

METAR: HECA 231000Z 03007KT CAVOK 36/12 Q1015 NOSIG

Hora: 12:36 (10:36 UTC)

Pronóstico

El informe se hizo hace 5 horas y 36 minutos, a las 05:00 UTC
Pronóstico válido del 23 a las 06 UTC al 24 a las 12 UTC
Viento 8 kt del norte-noreste
Visibilidad: 7000 m
Probabilidad 40%
del 23 a las 06 UTC al 23 a las 12 UTC
Viento 3 kt con dirección variable
Visibilidad: 4000 m
calima

TAF: HECA 230500Z 2306/2412 03008KT 7000 NSC PROB40 2306/2312 VRB03KT 4000 HZ NSC

Observaciones y pronósticos meteorológicos de más de 4000 aeropuertos (mensajes METAR y TAF).

Los puntos amarillos y rojos representan las estaciones disponibles.

Ponga el ratón en el punto deseado para ver el nombre de la estación.

Haga clic para ver las observaciones y los pronósticos meteorológicos.

Para cambiar el mapa : haga clic en los botones verdes con una cruz de color negro para hacer un zoom, en el botón verde con un guión para alejar o en las flechas verdes para mapas adyacentes.


METAR-TAF: